createdAt,value
2023-07-02T00:31:14.710Z,0.30
2023-07-02T00:33:41.465Z,0.63
2023-07-02T00:36:08.081Z,0.40
2023-07-02T00:38:34.731Z,0.30
2023-07-02T00:41:01.432Z,0.60
2023-07-02T00:43:28.168Z,0.40
2023-07-02T00:45:54.969Z,0.50
2023-07-02T00:48:21.871Z,0.38
2023-07-02T00:50:49.061Z,0.50
2023-07-02T00:53:16.245Z,0.82
2023-07-02T00:55:42.940Z,0.60
2023-07-02T00:58:10.831Z,0.65
2023-07-02T01:00:37.552Z,0.38
2023-07-02T01:03:04.493Z,0.63
2023-07-02T01:05:37.026Z,0.50
2023-07-02T01:08:05.449Z,0.80
2023-07-02T01:10:34.037Z,0.35
2023-07-02T01:13:09.828Z,0.35
2023-07-02T01:25:37.384Z,0.30
2023-07-02T01:28:04.684Z,0.30
2023-07-02T01:30:31.309Z,0.30
2023-07-02T01:32:58.028Z,0.52
2023-07-02T01:35:24.783Z,0.52
2023-07-02T01:37:52.309Z,0.50
2023-07-02T01:40:19.086Z,0.30
2023-07-02T01:42:45.727Z,0.40
2023-07-02T01:45:12.389Z,0.40
2023-07-02T01:47:39.086Z,0.98
2023-07-02T01:50:06.635Z,0.47
2023-07-02T01:52:34.918Z,0.55
2023-07-02T01:55:02.588Z,0.50
2023-07-02T01:57:30.962Z,0.55
2023-07-02T01:59:57.774Z,0.47
2023-07-02T02:02:24.446Z,0.63
2023-07-02T02:04:51.217Z,0.38
2023-07-02T02:07:17.969Z,0.30
2023-07-02T02:09:44.623Z,0.40
2023-07-02T02:12:11.553Z,0.30
2023-07-02T02:14:38.161Z,0.40
2023-07-02T02:17:04.844Z,0.82
2023-07-02T02:19:31.561Z,0.50
2023-07-02T02:21:58.200Z,0.73
2023-07-02T02:24:24.783Z,0.65
2023-07-02T02:26:51.429Z,0.63
2023-07-02T02:29:18.082Z,0.85
2023-07-02T02:31:45.338Z,0.52
2023-07-02T02:34:12.408Z,0.60
2023-07-02T02:36:39.002Z,0.60
2023-07-02T02:39:06.256Z,0.70
2023-07-02T02:41:32.887Z,1.13
2023-07-02T02:43:59.477Z,0.60
2023-07-02T02:46:26.520Z,0.60
2023-07-02T02:48:53.203Z,0.30
2023-07-02T02:51:19.812Z,0.82
2023-07-02T02:53:47.534Z,0.40
2023-07-02T02:56:14.330Z,0.52
2023-07-02T02:58:45.282Z,0.50
2023-07-02T03:01:12.245Z,0.40
2023-07-02T03:03:47.050Z,0.52
2023-07-02T03:06:16.977Z,0.60
2023-07-02T03:08:44.030Z,0.95
2023-07-02T03:11:10.780Z,0.60
2023-07-02T03:13:37.397Z,0.85
2023-07-02T03:16:04.076Z,0.73
2023-07-02T03:18:30.662Z,0.47
2023-07-02T03:20:57.338Z,0.80
2023-07-02T03:23:23.935Z,0.63
2023-07-02T03:25:50.520Z,0.70
2023-07-02T03:28:17.314Z,0.68
2023-07-02T03:30:43.947Z,0.52
2023-07-02T03:33:11.343Z,0.70
2023-07-02T03:35:38.001Z,0.50
2023-07-02T03:38:06.131Z,0.93
2023-07-02T03:40:32.798Z,0.80
2023-07-02T03:42:59.395Z,1.08
2023-07-02T03:45:26.045Z,1.33
2023-07-02T03:47:52.683Z,1.23
2023-07-02T03:50:19.616Z,0.90
2023-07-02T03:52:46.230Z,0.70
2023-07-02T03:55:13.012Z,1.13
2023-07-02T03:57:39.604Z,1.05
2023-07-02T04:00:07.459Z,1.13
2023-07-02T04:02:34.156Z,1.67
2023-07-02T04:05:00.919Z,1.00
2023-07-02T04:07:27.619Z,0.82
2023-07-02T04:09:54.213Z,1.30
2023-07-02T04:12:20.829Z,0.45
2023-07-02T04:14:47.468Z,0.75
2023-07-02T04:17:14.069Z,1.15
2023-07-02T04:19:40.644Z,0.50
2023-07-02T04:22:07.627Z,0.75
2023-07-02T04:24:34.190Z,0.80
2023-07-02T04:27:23.251Z,1.10
2023-07-02T04:29:48.508Z,0.80
2023-07-02T04:32:15.228Z,0.90
2023-07-02T04:34:42.652Z,0.45
2023-07-02T04:37:10.771Z,0.95
2023-07-02T04:39:37.535Z,1.00
2023-07-02T04:42:04.331Z,1.13
2023-07-02T04:44:30.911Z,0.60
2023-07-02T04:47:03.240Z,0.90
2023-07-02T04:49:29.870Z,1.10
2023-07-02T04:51:56.472Z,0.50
2023-07-02T04:54:23.229Z,0.70
2023-07-02T04:56:49.991Z,0.77
2023-07-02T04:59:16.838Z,1.25
2023-07-02T05:01:43.968Z,0.57
2023-07-02T05:04:12.747Z,1.55
2023-07-02T05:06:39.460Z,0.65
2023-07-02T05:09:06.411Z,1.25
2023-07-02T05:11:33.098Z,0.60
2023-07-02T05:13:59.870Z,0.93
2023-07-02T05:16:26.525Z,0.90
2023-07-02T05:18:53.171Z,0.88
2023-07-02T05:21:19.981Z,0.95
2023-07-02T05:23:46.584Z,0.70
2023-07-02T05:26:13.207Z,0.75
2023-07-02T05:28:39.816Z,0.68
2023-07-02T05:31:06.472Z,1.17
2023-07-02T05:33:34.520Z,1.23
2023-07-02T05:36:01.092Z,0.85
2023-07-02T05:38:27.796Z,0.85
2023-07-02T05:40:54.396Z,0.30
2023-07-02T05:43:21.001Z,0.75
2023-07-02T05:45:47.628Z,0.93
2023-07-02T05:48:14.257Z,0.45
2023-07-02T05:50:40.999Z,0.85
2023-07-02T05:53:07.613Z,0.88
2023-07-02T05:55:34.262Z,1.17
2023-07-02T05:58:03.093Z,0.93
2023-07-02T06:00:30.426Z,0.85
2023-07-02T06:02:57.157Z,0.95
2023-07-02T06:05:23.897Z,0.65
2023-07-02T06:07:50.561Z,0.90
2023-07-02T06:10:18.165Z,0.57
2023-07-02T06:12:44.774Z,0.50
2023-07-02T06:15:11.626Z,1.13
2023-07-02T06:17:38.312Z,0.70
2023-07-02T06:20:08.739Z,0.93
2023-07-02T06:22:35.353Z,0.52
2023-07-02T06:25:05.538Z,1.00
2023-07-02T06:27:32.865Z,1.10
2023-07-02T06:29:59.480Z,0.73
2023-07-02T06:32:26.382Z,0.73
2023-07-02T06:34:56.193Z,0.85
2023-07-02T06:37:22.843Z,0.90
2023-07-02T06:39:49.514Z,1.05
2023-07-02T06:42:16.144Z,0.95
2023-07-02T06:44:43.152Z,0.90
2023-07-02T06:47:10.401Z,0.90
2023-07-02T06:49:37.836Z,1.20
2023-07-02T06:52:04.820Z,1.23
2023-07-02T06:54:31.398Z,1.42
2023-07-02T06:56:58.029Z,0.80
2023-07-02T06:59:25.345Z,1.02
2023-07-02T07:01:52.062Z,1.00
2023-07-02T07:04:18.995Z,1.85
2023-07-02T07:06:45.659Z,1.23
2023-07-02T07:09:12.324Z,1.27
2023-07-02T07:11:38.926Z,1.13
2023-07-02T07:14:05.511Z,0.75
2023-07-02T07:16:32.166Z,1.58
2023-07-02T07:18:58.751Z,2.03
2023-07-02T07:21:25.390Z,2.50
2023-07-02T07:31:00.501Z,0.95
2023-07-02T07:40:50.948Z,1.40
2023-07-02T07:43:17.916Z,1.13
2023-07-02T07:45:44.587Z,1.92
2023-07-02T07:48:11.220Z,2.38
2023-07-02T07:50:37.810Z,0.93
2023-07-02T07:53:04.520Z,1.92
2023-07-02T07:55:31.214Z,2.05
2023-07-02T07:57:57.875Z,2.58
2023-07-02T08:00:25.726Z,2.25
2023-07-02T08:02:53.644Z,1.95
2023-07-02T08:05:20.353Z,2.35
2023-07-02T08:07:55.204Z,2.47
2023-07-02T08:10:25.608Z,1.75
2023-07-02T08:12:53.667Z,1.52
2023-07-02T08:16:33.502Z,1.45
2023-07-02T08:19:20.083Z,2.33
2023-07-02T08:25:31.807Z,1.98
2023-07-02T08:27:58.455Z,1.30
2023-07-02T08:44:34.307Z,1.50
2023-07-02T08:47:07.177Z,1.88
2023-07-02T08:49:34.017Z,3.50
2023-07-02T08:52:00.717Z,1.98
2023-07-02T08:54:46.231Z,2.28
2023-07-02T08:57:23.497Z,1.85
2023-07-02T08:59:59.535Z,3.17
2023-07-02T09:02:38.819Z,2.13
2023-07-02T09:05:06.096Z,2.17
2023-07-02T09:17:33.276Z,2.53
2023-07-02T09:20:03.629Z,2.45
2023-07-02T09:26:33.066Z,2.10
2023-07-02T09:32:58.321Z,2.17
2023-07-02T09:35:37.595Z,2.08
2023-07-02T09:38:04.343Z,2.95
2023-07-02T09:40:32.372Z,2.35
2023-07-02T09:42:59.298Z,2.78
2023-07-02T09:45:26.955Z,2.13
2023-07-02T09:47:54.543Z,2.30
2023-07-02T09:50:22.228Z,2.50
2023-07-02T09:52:49.349Z,3.53
2023-07-02T09:55:16.285Z,2.03
2023-07-02T09:57:44.992Z,2.42
2023-07-02T10:00:12.260Z,1.77
2023-07-02T10:02:39.614Z,2.47
2023-07-02T10:05:06.441Z,3.00
2023-07-02T10:07:36.091Z,1.80
2023-07-02T10:10:08.704Z,2.03
2023-07-02T10:12:35.710Z,1.50
2023-07-02T10:15:02.345Z,2.72
2023-07-02T10:34:37.757Z,2.28
2023-07-02T10:37:05.237Z,3.08
2023-07-02T10:39:42.757Z,2.47
2023-07-02T10:42:35.316Z,2.95
2023-07-02T10:45:02.191Z,2.97
2023-07-02T10:47:29.625Z,1.95
2023-07-02T10:50:02.420Z,1.85
2023-07-02T10:52:47.634Z,2.00
2023-07-02T10:55:56.679Z,3.42
2023-07-02T10:58:25.191Z,2.08
2023-07-02T11:00:53.032Z,2.40
2023-07-02T11:03:21.233Z,3.13
2023-07-02T11:05:53.558Z,2.78
2023-07-02T11:08:37.941Z,2.47
2023-07-02T11:11:06.955Z,1.67
2023-07-02T11:13:33.566Z,2.25
2023-07-02T11:16:00.204Z,1.67
2023-07-02T11:18:31.930Z,2.35
2023-07-02T11:21:01.216Z,1.98
2023-07-02T11:23:34.122Z,2.47
2023-07-02T11:26:02.239Z,2.17
2023-07-02T11:28:30.334Z,2.60
2023-07-02T11:30:57.686Z,1.27
2023-07-02T11:33:39.194Z,1.67
2023-07-02T11:36:06.668Z,2.10
2023-07-02T11:38:34.931Z,2.45
2023-07-02T11:41:01.618Z,1.75
2023-07-02T11:44:07.530Z,1.80
2023-07-02T11:46:39.536Z,1.80
2023-07-02T11:49:12.390Z,2.88
2023-07-02T11:52:23.174Z,2.40
2023-07-02T11:54:49.724Z,2.90
2023-07-02T11:57:24.366Z,1.42
2023-07-02T12:00:40.063Z,1.45
2023-07-02T12:03:40.865Z,2.28
2023-07-02T12:12:02.326Z,1.77
2023-07-02T12:17:07.129Z,1.75
2023-07-02T12:20:30.930Z,1.85
2023-07-02T12:26:08.272Z,1.48
2023-07-02T12:37:22.217Z,1.42
2023-07-02T12:40:06.436Z,1.65
2023-07-02T12:42:44.484Z,2.35
2023-07-02T12:45:20.109Z,1.90
2023-07-02T12:48:18.973Z,1.58
2023-07-02T12:51:08.427Z,1.88
2023-07-02T12:53:41.596Z,1.08
2023-07-02T12:58:48.994Z,2.53
2023-07-02T13:01:19.195Z,1.60
2023-07-02T13:03:51.118Z,1.95
2023-07-02T13:06:18.530Z,2.00
2023-07-02T13:08:48.260Z,1.92
2023-07-02T13:11:15.935Z,1.98
2023-07-02T13:13:42.574Z,1.27
2023-07-02T13:16:09.264Z,1.23
2023-07-02T13:18:36.067Z,1.92
2023-07-02T13:21:02.670Z,1.77
2023-07-02T13:23:29.303Z,1.40
2023-07-02T13:25:55.925Z,1.98
2023-07-02T13:28:23.159Z,1.45
2023-07-02T13:30:49.886Z,1.92
2023-07-02T13:33:16.485Z,1.58
2023-07-02T13:35:45.152Z,0.98
2023-07-02T13:38:17.589Z,1.50
2023-07-02T13:40:44.367Z,1.15
2023-07-02T13:43:11.035Z,2.22
2023-07-02T13:45:37.732Z,1.92
2023-07-02T13:48:04.604Z,1.70
2023-07-02T13:50:31.263Z,2.70
2023-07-02T13:52:58.612Z,1.85
2023-07-02T13:55:29.071Z,1.67
2023-07-02T13:57:57.065Z,1.42
2023-07-02T14:00:24.791Z,1.75
2023-07-02T14:02:51.680Z,1.60
2023-07-02T14:05:25.056Z,1.55
2023-07-02T14:07:51.771Z,1.80
2023-07-02T14:10:18.887Z,1.77
2023-07-02T14:12:45.653Z,2.05
2023-07-02T14:15:17.984Z,2.08
2023-07-02T14:17:55.984Z,1.88
2023-07-02T14:20:23.014Z,1.75
2023-07-02T14:26:17.586Z,2.50
2023-07-02T14:28:54.205Z,2.47
2023-07-02T14:38:18.899Z,1.60
2023-07-02T14:40:48.486Z,2.03
2023-07-02T14:43:46.062Z,1.80
2023-07-02T14:46:29.015Z,1.17
2023-07-02T14:48:58.296Z,1.55
2023-07-02T14:51:28.466Z,2.15
2023-07-02T14:53:56.701Z,2.55
2023-07-02T14:56:32.602Z,1.85
2023-07-02T14:58:59.871Z,1.35
2023-07-02T15:01:50.156Z,1.75
2023-07-02T15:04:20.280Z,1.40
2023-07-02T15:06:57.281Z,2.03
2023-07-02T15:12:43.875Z,2.75
2023-07-02T15:15:10.321Z,1.75
2023-07-02T15:17:37.096Z,1.50
2023-07-02T15:20:05.197Z,1.90
2023-07-02T15:22:31.783Z,2.17
2023-07-02T15:24:58.494Z,1.80
2023-07-02T15:27:25.146Z,1.92
2023-07-02T15:29:51.848Z,2.10
2023-07-02T15:32:18.654Z,1.83
2023-07-02T15:34:45.264Z,1.65
2023-07-02T15:37:11.854Z,1.33
2023-07-02T15:39:39.297Z,1.77
2023-07-02T15:42:06.354Z,1.73
2023-07-02T15:44:32.999Z,1.42
2023-07-02T15:46:59.879Z,1.50
2023-07-02T15:49:27.162Z,1.38
2023-07-02T15:51:53.831Z,1.48
2023-07-02T15:54:20.446Z,1.65
2023-07-02T15:56:47.017Z,1.60
2023-07-02T15:59:13.637Z,1.30
2023-07-02T16:01:40.703Z,1.60
2023-07-02T16:04:10.468Z,1.65
2023-07-02T16:06:37.589Z,1.00
2023-07-02T16:09:05.541Z,1.48
2023-07-02T16:11:35.563Z,1.63
2023-07-02T16:14:05.509Z,2.17
2023-07-02T16:16:33.075Z,1.45
2023-07-02T16:18:59.764Z,1.05
2023-07-02T16:21:26.373Z,1.75
2023-07-02T16:23:53.014Z,1.42
2023-07-02T16:26:19.593Z,1.20
2023-07-02T16:28:46.180Z,1.42
2023-07-02T16:31:12.853Z,0.95
2023-07-02T16:33:39.664Z,1.80
2023-07-02T16:36:09.003Z,1.05
2023-07-02T16:39:14.132Z,1.70
2023-07-02T16:45:28.344Z,1.40
2023-07-02T16:48:19.886Z,1.60
2023-07-02T16:56:14.078Z,1.85
2023-07-02T16:58:40.783Z,1.80
2023-07-02T17:01:13.663Z,0.60
2023-07-02T17:03:45.860Z,1.67
2023-07-02T17:06:12.821Z,1.75
2023-07-02T17:08:41.876Z,1.08
2023-07-02T17:11:11.087Z,1.23
2023-07-02T17:13:40.631Z,1.38
2023-07-02T17:16:07.630Z,1.50
2023-07-02T17:18:34.742Z,1.60
2023-07-02T17:21:01.900Z,2.22
2023-07-02T17:23:29.110Z,1.27
2023-07-02T17:26:00.856Z,0.98
2023-07-02T17:28:27.480Z,1.90
2023-07-02T17:30:58.159Z,1.17
2023-07-02T17:33:24.835Z,1.63
2023-07-02T17:35:51.688Z,1.67
2023-07-02T17:38:20.361Z,1.65
2023-07-02T17:40:47.049Z,1.02
2023-07-02T17:43:13.883Z,1.20
2023-07-02T17:45:41.146Z,1.58
2023-07-02T17:48:07.988Z,1.20
2023-07-02T17:50:34.873Z,1.92
2023-07-02T17:53:01.912Z,1.20
2023-07-02T17:55:29.662Z,1.17
2023-07-02T17:57:58.337Z,1.60
2023-07-02T18:00:26.631Z,1.60
2023-07-02T18:02:56.390Z,1.50
2023-07-02T18:05:23.367Z,2.20
2023-07-02T18:07:51.005Z,1.58
2023-07-02T18:10:17.747Z,1.75
2023-07-02T18:12:44.498Z,0.75
2023-07-02T18:15:11.908Z,1.35
2023-07-02T18:17:38.668Z,1.05
2023-07-02T18:20:06.452Z,1.17
2023-07-02T18:22:33.842Z,1.35
2023-07-02T18:25:01.252Z,1.30
2023-07-02T18:27:29.497Z,1.95
2023-07-02T18:29:59.177Z,2.72
2023-07-02T18:32:30.594Z,1.88
2023-07-02T18:35:05.598Z,2.25
2023-07-02T18:37:34.594Z,1.63
2023-07-02T18:40:04.547Z,2.15
2023-07-02T18:42:35.619Z,1.55
2023-07-02T18:45:14.629Z,1.83
2023-07-02T18:47:42.672Z,1.83
2023-07-02T18:50:39.042Z,1.98
2023-07-02T18:53:09.338Z,1.63
2023-07-02T18:55:47.368Z,2.13
2023-07-02T18:58:37.421Z,2.08
2023-07-02T19:05:00.457Z,2.15
2023-07-02T19:08:21.794Z,1.45
2023-07-02T19:10:59.755Z,3.05
2023-07-02T19:13:26.502Z,2.05
2023-07-02T19:15:53.274Z,2.40
2023-07-02T19:18:25.214Z,2.17
2023-07-02T19:23:53.109Z,2.35
2023-07-02T19:26:19.840Z,2.42
2023-07-02T19:28:46.644Z,2.65
2023-07-02T19:31:13.334Z,1.88
2023-07-02T19:33:40.040Z,2.50
2023-07-02T19:36:07.313Z,1.88
2023-07-02T19:38:34.110Z,2.28
2023-07-02T19:41:00.748Z,1.88
2023-07-02T19:43:28.013Z,1.80
2023-07-02T19:45:58.483Z,2.15
2023-07-02T19:48:25.176Z,2.03
2023-07-02T19:51:02.707Z,1.77
2023-07-02T19:53:29.642Z,1.35
2023-07-02T19:55:57.316Z,1.83
2023-07-02T19:58:23.948Z,2.03
2023-07-02T20:00:51.014Z,2.13
2023-07-02T20:03:17.670Z,2.28
2023-07-02T20:05:44.552Z,2.55
2023-07-02T20:08:11.394Z,1.95
2023-07-02T20:10:38.031Z,1.35
2023-07-02T20:13:04.832Z,1.77
2023-07-02T20:15:31.436Z,3.50
2023-07-02T20:17:59.249Z,2.53
2023-07-02T20:20:26.481Z,2.40
2023-07-02T20:22:53.492Z,2.10
2023-07-02T20:27:49.677Z,1.75
2023-07-02T20:30:16.349Z,1.45
2023-07-02T20:32:42.981Z,1.23
2023-07-02T20:35:10.147Z,1.63
2023-07-02T20:37:36.907Z,1.83
2023-07-02T20:40:15.336Z,2.78
2023-07-02T20:42:42.232Z,2.28
2023-07-02T20:45:13.053Z,1.45
2023-07-02T20:47:43.644Z,1.63
2023-07-02T20:50:14.268Z,1.92
2023-07-02T20:52:41.972Z,1.85
2023-07-02T20:55:09.113Z,1.88
2023-07-02T20:57:35.764Z,1.77
2023-07-02T21:00:02.534Z,1.63
2023-07-02T21:02:29.528Z,1.77
2023-07-02T21:04:59.357Z,1.48
2023-07-02T21:07:29.104Z,1.23
2023-07-02T21:09:55.715Z,1.38
2023-07-02T21:12:22.372Z,1.25
